sensor_id;sensor_type;location;lat;lon;timestamp;P1;durP1;ratioP1;P2;durP2;ratioP2
20988;SDS011;10653;47.052;15.410;2023-04-08T00:00:04;15.33;;;12.97;;
20988;SDS011;10653;47.052;15.410;2023-04-08T00:02:32;15.67;;;12.03;;
20988;SDS011;10653;47.052;15.410;2023-04-08T00:04:58;16.77;;;12.27;;
20988;SDS011;10653;47.052;15.410;2023-04-08T00:07:24;15.17;;;12.70;;
20988;SDS011;10653;47.052;15.410;2023-04-08T00:09:50;17.80;;;13.23;;
20988;SDS011;10653;47.052;15.410;2023-04-08T00:12:16;19.20;;;13.60;;
20988;SDS011;10653;47.052;15.410;2023-04-08T00:14:42;22.53;;;14.50;;
20988;SDS011;10653;47.052;15.410;2023-04-08T00:17:08;15.80;;;13.83;;
20988;SDS011;10653;47.052;15.410;2023-04-08T00:19:34;14.60;;;12.97;;
20988;SDS011;10653;47.052;15.410;2023-04-08T00:22:00;14.03;;;12.60;;
20988;SDS011;10653;47.052;15.410;2023-04-08T00:24:27;15.00;;;12.73;;
20988;SDS011;10653;47.052;15.410;2023-04-08T00:26:53;14.90;;;12.43;;
20988;SDS011;10653;47.052;15.410;2023-04-08T00:29:20;17.20;;;13.17;;
20988;SDS011;10653;47.052;15.410;2023-04-08T00:31:46;14.97;;;12.77;;
20988;SDS011;10653;47.052;15.410;2023-04-08T00:34:12;14.30;;;11.70;;
20988;SDS011;10653;47.052;15.410;2023-04-08T00:36:38;20.47;;;14.23;;
20988;SDS011;10653;47.052;15.410;2023-04-08T00:39:04;15.70;;;13.23;;
20988;SDS011;10653;47.052;15.410;2023-04-08T00:41:32;18.37;;;14.50;;
20988;SDS011;10653;47.052;15.410;2023-04-08T00:43:59;15.70;;;14.10;;
20988;SDS011;10653;47.052;15.410;2023-04-08T00:46:25;15.37;;;13.33;;
20988;SDS011;10653;47.052;15.410;2023-04-08T00:48:51;16.60;;;12.83;;
20988;SDS011;10653;47.052;15.410;2023-04-08T00:51:17;14.87;;;12.80;;
20988;SDS011;10653;47.052;15.410;2023-04-08T00:53:43;16.93;;;13.63;;
20988;SDS011;10653;47.052;15.410;2023-04-08T00:56:10;16.63;;;14.80;;
20988;SDS011;10653;47.052;15.410;2023-04-08T00:58:36;16.50;;;14.20;;
20988;SDS011;10653;47.052;15.410;2023-04-08T01:01:02;17.00;;;14.30;;
20988;SDS011;10653;47.052;15.410;2023-04-08T01:08:31;15.87;;;13.60;;
20988;SDS011;10653;47.052;15.410;2023-04-08T01:11:00;16.10;;;13.33;;
20988;SDS011;10653;47.052;15.410;2023-04-08T01:13:27;20.00;;;14.70;;
20988;SDS011;10653;47.052;15.410;2023-04-08T01:15:54;16.17;;;14.47;;
20988;SDS011;10653;47.052;15.410;2023-04-08T01:18:21;16.10;;;14.37;;
20988;SDS011;10653;47.052;15.410;2023-04-08T01:20:47;17.00;;;15.23;;
20988;SDS011;10653;47.052;15.410;2023-04-08T01:23:19;16.70;;;14.80;;
20988;SDS011;10653;47.052;15.410;2023-04-08T01:25:54;15.73;;;14.20;;
20988;SDS011;10653;47.052;15.410;2023-04-08T01:28:21;17.73;;;14.70;;
20988;SDS011;10653;47.052;15.410;2023-04-08T01:30:48;18.70;;;15.63;;
20988;SDS011;10653;47.052;15.410;2023-04-08T01:33:15;17.40;;;14.83;;
20988;SDS011;10653;47.052;15.410;2023-04-08T01:35:42;17.50;;;14.50;;
20988;SDS011;10653;47.052;15.410;2023-04-08T01:38:08;17.07;;;14.37;;
20988;SDS011;10653;47.052;15.410;2023-04-08T01:40:36;17.43;;;15.70;;
20988;SDS011;10653;47.052;15.410;2023-04-08T01:43:05;16.03;;;13.83;;
20988;SDS011;10653;47.052;15.410;2023-04-08T01:45:32;18.83;;;14.53;;
20988;SDS011;10653;47.052;15.410;2023-04-08T01:47:58;15.53;;;13.80;;
20988;SDS011;10653;47.052;15.410;2023-04-08T01:50:25;17.50;;;14.53;;
20988;SDS011;10653;47.052;15.410;2023-04-08T01:52:51;14.90;;;13.50;;
20988;SDS011;10653;47.052;15.410;2023-04-08T01:55:17;15.77;;;14.17;;
20988;SDS011;10653;47.052;15.410;2023-04-08T01:57:52;20.60;;;15.10;;
20988;SDS011;10653;47.052;15.410;2023-04-08T02:00:20;19.50;;;15.67;;
20988;SDS011;10653;47.052;15.410;2023-04-08T02:02:47;17.13;;;15.43;;
20988;SDS011;10653;47.052;15.410;2023-04-08T02:05:14;19.13;;;16.80;;
20988;SDS011;10653;47.052;15.410;2023-04-08T02:07:40;18.90;;;14.83;;
20988;SDS011;10653;47.052;15.410;2023-04-08T02:10:06;19.63;;;16.10;;
20988;SDS011;10653;47.052;15.410;2023-04-08T02:12:32;18.30;;;16.40;;
20988;SDS011;10653;47.052;15.410;2023-04-08T02:14:59;17.30;;;15.17;;
20988;SDS011;10653;47.052;15.410;2023-04-08T02:20:07;20.93;;;17.50;;
20988;SDS011;10653;47.052;15.410;2023-04-08T02:25:00;17.90;;;15.80;;
20988;SDS011;10653;47.052;15.410;2023-04-08T02:27:28;18.20;;;16.23;;
20988;SDS011;10653;47.052;15.410;2023-04-08T02:29:55;20.47;;;18.37;;
20988;SDS011;10653;47.052;15.410;2023-04-08T02:32:22;18.47;;;15.70;;
20988;SDS011;10653;47.052;15.410;2023-04-08T02:34:48;19.33;;;17.23;;
20988;SDS011;10653;47.052;15.410;2023-04-08T02:37:14;18.23;;;16.23;;
20988;SDS011;10653;47.052;15.410;2023-04-08T02:39:41;17.87;;;16.07;;
20988;SDS011;10653;47.052;15.410;2023-04-08T02:42:07;18.63;;;16.47;;
20988;SDS011;10653;47.052;15.410;2023-04-08T02:44:33;19.80;;;16.90;;
20988;SDS011;10653;47.052;15.410;2023-04-08T02:46:59;19.13;;;17.23;;
20988;SDS011;10653;47.052;15.410;2023-04-08T02:49:25;20.53;;;17.30;;
20988;SDS011;10653;47.052;15.410;2023-04-08T02:51:51;18.07;;;16.10;;
20988;SDS011;10653;47.052;15.410;2023-04-08T02:54:17;18.83;;;16.93;;
20988;SDS011;10653;47.052;15.410;2023-04-08T02:56:43;20.80;;;18.20;;
20988;SDS011;10653;47.052;15.410;2023-04-08T02:59:09;19.93;;;17.93;;
20988;SDS011;10653;47.052;15.410;2023-04-08T03:01:35;20.40;;;16.60;;
20988;SDS011;10653;47.052;15.410;2023-04-08T03:04:01;19.40;;;17.40;;
20988;SDS011;10653;47.052;15.410;2023-04-08T03:06:27;20.00;;;17.90;;
20988;SDS011;10653;47.052;15.410;2023-04-08T03:08:53;19.17;;;16.07;;
20988;SDS011;10653;47.052;15.410;2023-04-08T03:11:19;18.50;;;16.00;;
20988;SDS011;10653;47.052;15.410;2023-04-08T03:13:45;18.50;;;16.60;;
20988;SDS011;10653;47.052;15.410;2023-04-08T03:16:11;18.90;;;15.73;;
20988;SDS011;10653;47.052;15.410;2023-04-08T03:18:37;17.80;;;15.93;;
20988;SDS011;10653;47.052;15.410;2023-04-08T03:21:03;20.03;;;17.30;;
20988;SDS011;10653;47.052;15.410;2023-04-08T03:23:29;17.67;;;15.83;;
20988;SDS011;10653;47.052;15.410;2023-04-08T03:25:55;20.73;;;17.77;;
20988;SDS011;10653;47.052;15.410;2023-04-08T03:28:21;19.33;;;17.23;;
20988;SDS011;10653;47.052;15.410;2023-04-08T03:30:48;19.43;;;17.40;;
20988;SDS011;10653;47.052;15.410;2023-04-08T03:33:14;18.40;;;16.50;;
20988;SDS011;10653;47.052;15.410;2023-04-08T03:35:40;19.33;;;16.73;;
20988;SDS011;10653;47.052;15.410;2023-04-08T03:38:06;18.57;;;16.57;;
20988;SDS011;10653;47.052;15.410;2023-04-08T03:40:32;19.07;;;17.07;;
20988;SDS011;10653;47.052;15.410;2023-04-08T03:42:58;18.67;;;16.70;;
20988;SDS011;10653;47.052;15.410;2023-04-08T03:45:24;19.33;;;16.23;;
20988;SDS011;10653;47.052;15.410;2023-04-08T03:47:50;17.07;;;15.33;;
20988;SDS011;10653;47.052;15.410;2023-04-08T03:50:16;20.53;;;16.53;;
20988;SDS011;10653;47.052;15.410;2023-04-08T03:52:42;20.97;;;17.17;;
20988;SDS011;10653;47.052;15.410;2023-04-08T03:55:08;21.50;;;19.10;;
20988;SDS011;10653;47.052;15.410;2023-04-08T03:57:34;19.47;;;17.40;;
20988;SDS011;10653;47.052;15.410;2023-04-08T04:00:00;19.83;;;17.03;;
20988;SDS011;10653;47.052;15.410;2023-04-08T04:02:26;21.90;;;18.20;;
20988;SDS011;10653;47.052;15.410;2023-04-08T04:04:52;18.90;;;16.93;;
20988;SDS011;10653;47.052;15.410;2023-04-08T04:07:18;20.50;;;17.13;;
20988;SDS011;10653;47.052;15.410;2023-04-08T04:09:44;20.50;;;18.10;;
20988;SDS011;10653;47.052;15.410;2023-04-08T04:12:10;23.20;;;18.90;;
20988;SDS011;10653;47.052;15.410;2023-04-08T04:14:36;19.10;;;17.10;;
20988;SDS011;10653;47.052;15.410;2023-04-08T04:17:02;19.70;;;17.70;;
20988;SDS011;10653;47.052;15.410;2023-04-08T04:19:29;21.23;;;18.77;;
20988;SDS011;10653;47.052;15.410;2023-04-08T04:21:55;18.73;;;17.03;;
20988;SDS011;10653;47.052;15.410;2023-04-08T04:24:21;18.60;;;16.70;;
20988;SDS011;10653;47.052;15.410;2023-04-08T04:26:47;19.57;;;17.50;;
20988;SDS011;10653;47.052;15.410;2023-04-08T04:29:13;19.70;;;17.60;;
20988;SDS011;10653;47.052;15.410;2023-04-08T04:31:39;19.13;;;17.10;;
20988;SDS011;10653;47.052;15.410;2023-04-08T04:34:06;20.50;;;18.50;;
20988;SDS011;10653;47.052;15.410;2023-04-08T04:36:32;20.63;;;18.40;;
20988;SDS011;10653;47.052;15.410;2023-04-08T04:38:58;27.03;;;18.30;;
20988;SDS011;10653;47.052;15.410;2023-04-08T04:41:24;21.80;;;19.50;;
20988;SDS011;10653;47.052;15.410;2023-04-08T04:43:51;21.20;;;18.93;;
20988;SDS011;10653;47.052;15.410;2023-04-08T04:46:17;20.03;;;18.03;;
20988;SDS011;10653;47.052;15.410;2023-04-08T04:48:43;23.00;;;19.50;;
20988;SDS011;10653;47.052;15.410;2023-04-08T04:51:09;20.90;;;18.27;;
20988;SDS011;10653;47.052;15.410;2023-04-08T04:53:35;22.27;;;19.90;;
20988;SDS011;10653;47.052;15.410;2023-04-08T04:56:01;21.83;;;19.33;;
20988;SDS011;10653;47.052;15.410;2023-04-08T04:58:27;22.37;;;20.00;;
20988;SDS011;10653;47.052;15.410;2023-04-08T05:00:54;24.73;;;20.00;;
20988;SDS011;10653;47.052;15.410;2023-04-08T05:03:20;26.20;;;20.20;;
20988;SDS011;10653;47.052;15.410;2023-04-08T05:05:49;24.17;;;20.90;;
20988;SDS011;10653;47.052;15.410;2023-04-08T05:08:16;22.07;;;20.03;;
20988;SDS011;10653;47.052;15.410;2023-04-08T05:10:42;23.40;;;20.47;;
20988;SDS011;10653;47.052;15.410;2023-04-08T05:13:08;22.77;;;20.37;;
20988;SDS011;10653;47.052;15.410;2023-04-08T05:15:34;23.00;;;20.27;;
20988;SDS011;10653;47.052;15.410;2023-04-08T05:18:00;24.57;;;22.07;;
20988;SDS011;10653;47.052;15.410;2023-04-08T05:20:26;27.10;;;23.00;;
20988;SDS011;10653;47.052;15.410;2023-04-08T05:22:52;26.90;;;24.10;;
20988;SDS011;10653;47.052;15.410;2023-04-08T05:25:19;25.03;;;22.43;;
20988;SDS011;10653;47.052;15.410;2023-04-08T05:27:45;25.80;;;23.27;;
20988;SDS011;10653;47.052;15.410;2023-04-08T05:30:11;25.30;;;22.70;;
20988;SDS011;10653;47.052;15.410;2023-04-08T05:32:37;23.87;;;21.37;;
20988;SDS011;10653;47.052;15.410;2023-04-08T05:35:03;26.30;;;20.93;;
20988;SDS011;10653;47.052;15.410;2023-04-08T05:37:30;24.35;;;21.70;;
20988;SDS011;10653;47.052;15.410;2023-04-08T05:39:56;22.83;;;19.67;;
20988;SDS011;10653;47.052;15.410;2023-04-08T05:42:22;23.33;;;19.63;;
20988;SDS011;10653;47.052;15.410;2023-04-08T05:44:48;23.37;;;20.90;;
20988;SDS011;10653;47.052;15.410;2023-04-08T05:47:14;24.57;;;22.17;;
20988;SDS011;10653;47.052;15.410;2023-04-08T05:49:40;24.47;;;22.03;;
20988;SDS011;10653;47.052;15.410;2023-04-08T05:52:06;23.43;;;21.23;;
20988;SDS011;10653;47.052;15.410;2023-04-08T05:54:32;23.77;;;21.50;;
20988;SDS011;10653;47.052;15.410;2023-04-08T05:56:58;26.37;;;20.37;;
20988;SDS011;10653;47.052;15.410;2023-04-08T05:59:24;25.10;;;22.40;;
20988;SDS011;10653;47.052;15.410;2023-04-08T06:01:50;22.03;;;19.80;;
20988;SDS011;10653;47.052;15.410;2023-04-08T06:04:16;22.83;;;20.47;;
20988;SDS011;10653;47.052;15.410;2023-04-08T06:06:42;21.97;;;19.80;;
20988;SDS011;10653;47.052;15.410;2023-04-08T06:09:08;22.60;;;20.20;;
20988;SDS011;10653;47.052;15.410;2023-04-08T06:11:34;21.67;;;19.23;;
20988;SDS011;10653;47.052;15.410;2023-04-08T06:14:00;21.87;;;19.63;;
20988;SDS011;10653;47.052;15.410;2023-04-08T06:16:26;22.40;;;20.13;;
20988;SDS011;10653;47.052;15.410;2023-04-08T06:18:52;24.03;;;21.30;;
20988;SDS011;10653;47.052;15.410;2023-04-08T06:21:18;23.37;;;20.20;;
20988;SDS011;10653;47.052;15.410;2023-04-08T06:23:46;22.07;;;19.73;;
20988;SDS011;10653;47.052;15.410;2023-04-08T06:26:12;24.43;;;21.47;;
20988;SDS011;10653;47.052;15.410;2023-04-08T06:28:38;23.27;;;19.80;;
20988;SDS011;10653;47.052;15.410;2023-04-08T06:31:04;21.50;;;19.20;;
20988;SDS011;10653;47.052;15.410;2023-04-08T06:33:30;24.47;;;19.30;;
20988;SDS011;10653;47.052;15.410;2023-04-08T06:36:00;22.30;;;20.00;;
20988;SDS011;10653;47.052;15.410;2023-04-08T06:38:27;22.70;;;20.27;;
20988;SDS011;10653;47.052;15.410;2023-04-08T06:40:53;23.00;;;20.60;;
20988;SDS011;10653;47.052;15.410;2023-04-08T06:43:20;21.77;;;19.50;;
20988;SDS011;10653;47.052;15.410;2023-04-08T06:45:46;23.03;;;20.73;;
20988;SDS011;10653;47.052;15.410;2023-04-08T06:48:12;22.40;;;20.10;;
20988;SDS011;10653;47.052;15.410;2023-04-08T06:50:38;19.33;;;17.23;;
20988;SDS011;10653;47.052;15.410;2023-04-08T06:53:04;18.80;;;16.90;;
20988;SDS011;10653;47.052;15.410;2023-04-08T06:55:30;21.87;;;17.60;;
20988;SDS011;10653;47.052;15.410;2023-04-08T06:57:56;19.53;;;17.60;;
20988;SDS011;10653;47.052;15.410;2023-04-08T07:00:22;20.00;;;17.40;;
20988;SDS011;10653;47.052;15.410;2023-04-08T07:02:48;22.03;;;17.10;;
20988;SDS011;10653;47.052;15.410;2023-04-08T07:05:14;19.93;;;17.87;;
20988;SDS011;10653;47.052;15.410;2023-04-08T07:07:40;19.07;;;16.93;;
20988;SDS011;10653;47.052;15.410;2023-04-08T07:10:06;20.20;;;18.10;;
20988;SDS011;10653;47.052;15.410;2023-04-08T07:12:32;19.33;;;17.30;;
20988;SDS011;10653;47.052;15.410;2023-04-08T07:14:58;19.60;;;17.50;;
20988;SDS011;10653;47.052;15.410;2023-04-08T07:17:24;20.07;;;17.97;;
20988;SDS011;10653;47.052;15.410;2023-04-08T07:19:50;18.07;;;16.17;;
20988;SDS011;10653;47.052;15.410;2023-04-08T07:22:16;17.13;;;15.40;;
20988;SDS011;10653;47.052;15.410;2023-04-08T07:24:42;18.67;;;16.67;;
20988;SDS011;10653;47.052;15.410;2023-04-08T07:27:13;19.60;;;17.30;;
20988;SDS011;10653;47.052;15.410;2023-04-08T07:29:39;17.37;;;15.60;;
20988;SDS011;10653;47.052;15.410;2023-04-08T07:32:05;17.50;;;15.70;;
20988;SDS011;10653;47.052;15.410;2023-04-08T07:34:33;18.40;;;16.60;;
20988;SDS011;10653;47.052;15.410;2023-04-08T07:37:00;16.50;;;14.80;;
20988;SDS011;10653;47.052;15.410;2023-04-08T07:39:26;15.73;;;14.20;;
20988;SDS011;10653;47.052;15.410;2023-04-08T07:41:52;14.27;;;12.87;;
20988;SDS011;10653;47.052;15.410;2023-04-08T07:44:18;14.50;;;12.67;;
20988;SDS011;10653;47.052;15.410;2023-04-08T07:46:44;14.37;;;13.00;;
20988;SDS011;10653;47.052;15.410;2023-04-08T07:49:14;14.27;;;12.77;;
20988;SDS011;10653;47.052;15.410;2023-04-08T07:51:40;15.27;;;13.67;;
20988;SDS011;10653;47.052;15.410;2023-04-08T07:54:07;14.73;;;13.27;;
20988;SDS011;10653;47.052;15.410;2023-04-08T07:56:35;14.70;;;13.30;;
20988;SDS011;10653;47.052;15.410;2023-04-08T07:59:04;13.17;;;11.97;;
20988;SDS011;10653;47.052;15.410;2023-04-08T08:01:30;15.27;;;13.60;;
20988;SDS011;10653;47.052;15.410;2023-04-08T08:03:58;14.70;;;13.00;;
20988;SDS011;10653;47.052;15.410;2023-04-08T08:06:25;11.63;;;10.57;;
20988;SDS011;10653;47.052;15.410;2023-04-08T08:08:56;13.23;;;11.80;;
20988;SDS011;10653;47.052;15.410;2023-04-08T08:11:22;10.70;;;9.70;;
20988;SDS011;10653;47.052;15.410;2023-04-08T08:13:48;11.37;;;10.17;;
20988;SDS011;10653;47.052;15.410;2023-04-08T08:16:15;11.30;;;10.23;;
20988;SDS011;10653;47.052;15.410;2023-04-08T08:18:41;10.77;;;9.70;;
20988;SDS011;10653;47.052;15.410;2023-04-08T08:21:07;11.27;;;10.17;;
20988;SDS011;10653;47.052;15.410;2023-04-08T08:23:33;10.40;;;9.50;;
20988;SDS011;10653;47.052;15.410;2023-04-08T08:26:00;11.60;;;10.50;;
20988;SDS011;10653;47.052;15.410;2023-04-08T08:28:26;11.10;;;10.10;;
20988;SDS011;10653;47.052;15.410;2023-04-08T08:30:53;9.97;;;8.97;;
20988;SDS011;10653;47.052;15.410;2023-04-08T08:33:19;9.40;;;8.60;;
20988;SDS011;10653;47.052;15.410;2023-04-08T08:35:45;9.23;;;8.43;;
20988;SDS011;10653;47.052;15.410;2023-04-08T08:38:11;9.17;;;8.37;;
20988;SDS011;10653;47.052;15.410;2023-04-08T08:40:38;9.50;;;8.60;;
20988;SDS011;10653;47.052;15.410;2023-04-08T08:43:04;8.77;;;7.97;;
20988;SDS011;10653;47.052;15.410;2023-04-08T08:45:30;10.00;;;9.00;;
20988;SDS011;10653;47.052;15.410;2023-04-08T08:47:57;9.70;;;8.90;;
20988;SDS011;10653;47.052;15.410;2023-04-08T08:50:23;10.33;;;9.40;;
20988;SDS011;10653;47.052;15.410;2023-04-08T08:52:50;10.10;;;9.20;;
20988;SDS011;10653;47.052;15.410;2023-04-08T08:55:17;11.00;;;10.10;;
20988;SDS011;10653;47.052;15.410;2023-04-08T08:57:44;9.53;;;8.63;;
20988;SDS011;10653;47.052;15.410;2023-04-08T09:00:10;9.73;;;8.83;;
20988;SDS011;10653;47.052;15.410;2023-04-08T09:02:37;10.07;;;9.20;;
20988;SDS011;10653;47.052;15.410;2023-04-08T09:05:03;9.87;;;9.00;;
20988;SDS011;10653;47.052;15.410;2023-04-08T09:07:30;10.47;;;9.47;;
20988;SDS011;10653;47.052;15.410;2023-04-08T09:09:57;10.70;;;9.70;;
20988;SDS011;10653;47.052;15.410;2023-04-08T09:12:24;10.30;;;9.40;;
20988;SDS011;10653;47.052;15.410;2023-04-08T09:15:01;10.07;;;9.17;;
20988;SDS011;10653;47.052;15.410;2023-04-08T09:17:31;8.70;;;7.90;;
20988;SDS011;10653;47.052;15.410;2023-04-08T09:20:08;9.10;;;8.30;;
20988;SDS011;10653;47.052;15.410;2023-04-08T09:25:30;10.47;;;9.53;;
20988;SDS011;10653;47.052;15.410;2023-04-08T09:27:56;11.00;;;9.90;;
20988;SDS011;10653;47.052;15.410;2023-04-08T09:30:23;11.50;;;10.33;;
20988;SDS011;10653;47.052;15.410;2023-04-08T09:32:51;10.70;;;9.70;;
20988;SDS011;10653;47.052;15.410;2023-04-08T09:35:18;11.67;;;10.57;;
20988;SDS011;10653;47.052;15.410;2023-04-08T09:37:44;11.03;;;10.03;;
20988;SDS011;10653;47.052;15.410;2023-04-08T09:40:11;10.73;;;9.83;;
20988;SDS011;10653;47.052;15.410;2023-04-08T09:42:39;11.33;;;10.33;;
20988;SDS011;10653;47.052;15.410;2023-04-08T09:45:08;12.27;;;11.17;;
20988;SDS011;10653;47.052;15.410;2023-04-08T09:47:38;11.17;;;10.20;;
20988;SDS011;10653;47.052;15.410;2023-04-08T09:50:06;10.90;;;9.90;;
20988;SDS011;10653;47.052;15.410;2023-04-08T09:52:37;11.37;;;10.37;;
20988;SDS011;10653;47.052;15.410;2023-04-08T09:55:05;9.57;;;8.77;;
20988;SDS011;10653;47.052;15.410;2023-04-08T09:57:46;11.03;;;10.00;;
20988;SDS011;10653;47.052;15.410;2023-04-08T10:00:16;10.30;;;9.50;;
20988;SDS011;10653;47.052;15.410;2023-04-08T10:05:09;10.67;;;9.60;;
20988;SDS011;10653;47.052;15.410;2023-04-08T10:07:37;9.83;;;8.93;;
20988;SDS011;10653;47.052;15.410;2023-04-08T10:10:04;10.80;;;9.80;;
20988;SDS011;10653;47.052;15.410;2023-04-08T10:12:31;9.33;;;8.53;;
20988;SDS011;10653;47.052;15.410;2023-04-08T10:17:42;9.83;;;8.83;;
20988;SDS011;10653;47.052;15.410;2023-04-08T10:20:32;10.67;;;9.77;;
20988;SDS011;10653;47.052;15.410;2023-04-08T10:22:54;11.37;;;10.17;;
20988;SDS011;10653;47.052;15.410;2023-04-08T10:25:30;10.80;;;9.87;;
20988;SDS011;10653;47.052;15.410;2023-04-08T10:27:56;9.00;;;8.20;;
20988;SDS011;10653;47.052;15.410;2023-04-08T10:32:52;10.47;;;9.60;;
20988;SDS011;10653;47.052;15.410;2023-04-08T10:38:11;10.20;;;9.30;;
20988;SDS011;10653;47.052;15.410;2023-04-08T10:40:38;10.83;;;9.90;;
20988;SDS011;10653;47.052;15.410;2023-04-08T10:43:05;9.43;;;8.63;;
20988;SDS011;10653;47.052;15.410;2023-04-08T10:45:32;11.87;;;10.77;;
20988;SDS011;10653;47.052;15.410;2023-04-08T10:48:15;9.80;;;8.97;;
20988;SDS011;10653;47.052;15.410;2023-04-08T10:50:42;11.27;;;10.27;;
20988;SDS011;10653;47.052;15.410;2023-04-08T10:53:08;11.13;;;10.13;;
20988;SDS011;10653;47.052;15.410;2023-04-08T10:55:35;12.50;;;11.20;;
20988;SDS011;10653;47.052;15.410;2023-04-08T10:58:08;10.63;;;9.73;;
20988;SDS011;10653;47.052;15.410;2023-04-08T11:00:38;12.47;;;11.27;;
20988;SDS011;10653;47.052;15.410;2023-04-08T11:03:05;11.67;;;10.57;;
20988;SDS011;10653;47.052;15.410;2023-04-08T11:05:32;12.50;;;11.30;;
20988;SDS011;10653;47.052;15.410;2023-04-08T11:07:58;12.33;;;11.20;;
20988;SDS011;10653;47.052;15.410;2023-04-08T11:10:27;13.27;;;11.87;;
20988;SDS011;10653;47.052;15.410;2023-04-08T11:12:54;11.33;;;10.27;;
20988;SDS011;10653;47.052;15.410;2023-04-08T11:15:23;12.53;;;11.30;;
20988;SDS011;10653;47.052;15.410;2023-04-08T11:17:50;13.00;;;11.80;;
20988;SDS011;10653;47.052;15.410;2023-04-08T11:20:17;12.50;;;11.40;;
20988;SDS011;10653;47.052;15.410;2023-04-08T11:22:43;13.20;;;11.90;;
20988;SDS011;10653;47.052;15.410;2023-04-08T11:25:09;11.70;;;10.63;;
20988;SDS011;10653;47.052;15.410;2023-04-08T11:27:36;12.93;;;11.73;;
20988;SDS011;10653;47.052;15.410;2023-04-08T11:30:03;13.80;;;12.50;;
20988;SDS011;10653;47.052;15.410;2023-04-08T11:32:30;13.47;;;12.13;;
20988;SDS011;10653;47.052;15.410;2023-04-08T11:34:59;14.40;;;13.10;;
20988;SDS011;10653;47.052;15.410;2023-04-08T11:37:26;13.23;;;12.03;;
20988;SDS011;10653;47.052;15.410;2023-04-08T11:40:00;13.70;;;12.30;;
20988;SDS011;10653;47.052;15.410;2023-04-08T11:42:27;12.67;;;11.57;;
20988;SDS011;10653;47.052;15.410;2023-04-08T11:44:53;12.70;;;11.40;;
20988;SDS011;10653;47.052;15.410;2023-04-08T11:47:20;13.30;;;12.10;;
20988;SDS011;10653;47.052;15.410;2023-04-08T11:49:46;13.97;;;12.57;;
20988;SDS011;10653;47.052;15.410;2023-04-08T11:52:12;15.20;;;13.17;;
20988;SDS011;10653;47.052;15.410;2023-04-08T11:54:41;12.90;;;11.60;;
20988;SDS011;10653;47.052;15.410;2023-04-08T11:57:08;12.67;;;11.47;;
20988;SDS011;10653;47.052;15.410;2023-04-08T11:59:35;12.03;;;10.93;;
20988;SDS011;10653;47.052;15.410;2023-04-08T12:02:01;11.67;;;10.57;;
20988;SDS011;10653;47.052;15.410;2023-04-08T12:04:28;11.93;;;10.83;;
20988;SDS011;10653;47.052;15.410;2023-04-08T12:06:54;11.90;;;10.77;;
20988;SDS011;10653;47.052;15.410;2023-04-08T12:09:20;11.37;;;10.40;;
20988;SDS011;10653;47.052;15.410;2023-04-08T12:11:46;11.70;;;10.70;;
20988;SDS011;10653;47.052;15.410;2023-04-08T12:14:12;11.70;;;10.50;;
20988;SDS011;10653;47.052;15.410;2023-04-08T12:16:39;11.03;;;10.07;;
20988;SDS011;10653;47.052;15.410;2023-04-08T12:19:05;10.57;;;9.57;;
20988;SDS011;10653;47.052;15.410;2023-04-08T12:21:31;10.03;;;9.07;;
20988;SDS011;10653;47.052;15.410;2023-04-08T12:23:58;11.40;;;10.40;;
20988;SDS011;10653;47.052;15.410;2023-04-08T12:26:25;12.00;;;10.87;;
20988;SDS011;10653;47.052;15.410;2023-04-08T12:28:51;12.23;;;10.93;;
20988;SDS011;10653;47.052;15.410;2023-04-08T12:31:17;12.37;;;11.17;;
20988;SDS011;10653;47.052;15.410;2023-04-08T12:33:43;13.00;;;11.80;;
20988;SDS011;10653;47.052;15.410;2023-04-08T12:36:09;11.77;;;10.77;;
20988;SDS011;10653;47.052;15.410;2023-04-08T12:38:35;11.90;;;10.83;;
20988;SDS011;10653;47.052;15.410;2023-04-08T12:41:01;11.47;;;10.37;;
20988;SDS011;10653;47.052;15.410;2023-04-08T12:43:27;12.13;;;11.13;;
20988;SDS011;10653;47.052;15.410;2023-04-08T12:45:53;11.47;;;10.47;;
20988;SDS011;10653;47.052;15.410;2023-04-08T12:48:19;10.97;;;9.97;;
20988;SDS011;10653;47.052;15.410;2023-04-08T12:50:45;10.67;;;9.70;;
20988;SDS011;10653;47.052;15.410;2023-04-08T12:53:11;10.77;;;9.77;;
20988;SDS011;10653;47.052;15.410;2023-04-08T12:55:37;10.03;;;9.13;;
20988;SDS011;10653;47.052;15.410;2023-04-08T12:58:03;9.73;;;8.77;;
20988;SDS011;10653;47.052;15.410;2023-04-08T13:00:30;9.93;;;9.03;;
20988;SDS011;10653;47.052;15.410;2023-04-08T13:02:56;11.20;;;10.23;;
20988;SDS011;10653;47.052;15.410;2023-04-08T13:05:22;10.27;;;9.43;;
20988;SDS011;10653;47.052;15.410;2023-04-08T13:07:48;11.57;;;10.57;;
20988;SDS011;10653;47.052;15.410;2023-04-08T13:10:14;12.40;;;11.20;;
20988;SDS011;10653;47.052;15.410;2023-04-08T13:12:40;10.90;;;9.93;;
20988;SDS011;10653;47.052;15.410;2023-04-08T13:15:06;11.50;;;10.40;;
20988;SDS011;10653;47.052;15.410;2023-04-08T13:17:33;12.10;;;11.00;;
20988;SDS011;10653;47.052;15.410;2023-04-08T13:20:00;11.63;;;10.43;;
20988;SDS011;10653;47.052;15.410;2023-04-08T13:22:26;12.10;;;11.00;;
20988;SDS011;10653;47.052;15.410;2023-04-08T13:24:52;11.37;;;10.20;;
20988;SDS011;10653;47.052;15.410;2023-04-08T13:27:18;10.90;;;9.90;;
20988;SDS011;10653;47.052;15.410;2023-04-08T13:29:44;12.43;;;11.27;;
20988;SDS011;10653;47.052;15.410;2023-04-08T13:32:10;11.67;;;10.63;;
20988;SDS011;10653;47.052;15.410;2023-04-08T13:34:36;11.33;;;10.20;;
20988;SDS011;10653;47.052;15.410;2023-04-08T13:37:02;11.80;;;10.80;;
20988;SDS011;10653;47.052;15.410;2023-04-08T13:39:28;11.77;;;10.57;;
20988;SDS011;10653;47.052;15.410;2023-04-08T13:41:55;12.90;;;11.60;;
20988;SDS011;10653;47.052;15.410;2023-04-08T13:44:21;12.33;;;11.13;;
20988;SDS011;10653;47.052;15.410;2023-04-08T13:46:47;11.60;;;10.57;;
20988;SDS011;10653;47.052;15.410;2023-04-08T13:49:13;14.10;;;12.80;;
20988;SDS011;10653;47.052;15.410;2023-04-08T13:51:40;12.83;;;11.57;;
20988;SDS011;10653;47.052;15.410;2023-04-08T13:54:06;16.00;;;14.50;;
20988;SDS011;10653;47.052;15.410;2023-04-08T13:56:32;15.80;;;14.20;;
20988;SDS011;10653;47.052;15.410;2023-04-08T13:58:58;14.03;;;12.63;;
20988;SDS011;10653;47.052;15.410;2023-04-08T14:01:24;15.90;;;14.40;;
20988;SDS011;10653;47.052;15.410;2023-04-08T14:03:50;15.00;;;13.50;;
20988;SDS011;10653;47.052;15.410;2023-04-08T14:06:16;14.53;;;13.13;;
20988;SDS011;10653;47.052;15.410;2023-04-08T14:08:42;14.80;;;13.27;;
20988;SDS011;10653;47.052;15.410;2023-04-08T14:11:08;13.37;;;12.00;;
20988;SDS011;10653;47.052;15.410;2023-04-08T14:13:34;13.60;;;12.10;;
20988;SDS011;10653;47.052;15.410;2023-04-08T14:16:00;16.33;;;13.93;;
20988;SDS011;10653;47.052;15.410;2023-04-08T14:18:27;14.47;;;12.97;;
20988;SDS011;10653;47.052;15.410;2023-04-08T14:20:53;14.53;;;13.13;;
20988;SDS011;10653;47.052;15.410;2023-04-08T14:23:20;14.20;;;12.80;;
20988;SDS011;10653;47.052;15.410;2023-04-08T14:25:46;16.37;;;14.50;;
20988;SDS011;10653;47.052;15.410;2023-04-08T14:28:12;16.43;;;14.83;;
20988;SDS011;10653;47.052;15.410;2023-04-08T14:30:38;14.00;;;12.70;;